createdAt,value
2023-04-13T00:00:37.992Z,9.36
2023-04-13T00:03:42.616Z,9.32
2023-04-13T00:06:47.937Z,9.91
2023-04-13T00:09:52.625Z,8.89
2023-04-13T00:12:59.119Z,7.79
2023-04-13T00:16:03.678Z,7.56
2023-04-13T00:19:07.726Z,7.16
2023-04-13T00:22:11.491Z,7.49
2023-04-13T00:25:16.831Z,7.21
2023-04-13T00:28:21.450Z,7.37
2023-04-13T00:31:26.189Z,8.01
2023-04-13T00:34:30.874Z,7.51
2023-04-13T00:37:38.091Z,7.46
2023-04-13T00:40:43.086Z,7.70
2023-04-13T00:43:47.559Z,7.78
2023-04-13T00:46:55.118Z,7.78
2023-04-13T00:50:02.958Z,8.13
2023-04-13T00:53:10.620Z,8.19
2023-04-13T00:56:15.834Z,8.05
2023-04-13T00:59:21.657Z,8.06
2023-04-13T01:02:28.211Z,8.94
2023-04-13T01:05:58.146Z,9.39
2023-04-13T01:09:17.874Z,9.41
2023-04-13T01:12:39.585Z,9.54
2023-04-13T01:15:53.077Z,8.90
2023-04-13T01:18:57.788Z,9.40
2023-04-13T01:22:04.235Z,9.96
2023-04-13T01:25:48.098Z,10.74
2023-04-13T01:28:54.373Z,10.31
2023-04-13T01:31:59.872Z,10.58
2023-04-13T01:35:05.834Z,10.00
2023-04-13T01:38:10.776Z,10.69
2023-04-13T01:41:15.414Z,11.40
2023-04-13T01:44:23.139Z,10.80
2023-04-13T01:47:29.734Z,10.97
2023-04-13T01:50:46.732Z,11.16
2023-04-13T01:54:21.238Z,10.78
2023-04-13T01:57:27.120Z,10.31
2023-04-13T02:00:37.190Z,10.66
2023-04-13T02:03:46.979Z,11.10
2023-04-13T02:06:52.468Z,12.00
2023-04-13T02:10:06.867Z,10.44
2023-04-13T02:13:11.680Z,10.59
2023-04-13T02:16:16.566Z,10.02
2023-04-13T02:19:22.617Z,9.66
2023-04-13T02:22:27.573Z,9.38
2023-04-13T02:25:32.503Z,9.36
2023-04-13T02:28:36.825Z,8.88
2023-04-13T02:31:44.769Z,8.65
2023-04-13T02:34:49.037Z,8.94
2023-04-13T02:37:53.323Z,8.88
2023-04-13T02:41:01.431Z,8.53
2023-04-13T02:44:05.760Z,8.58
2023-04-13T02:47:19.745Z,8.64
2023-04-13T02:50:24.607Z,9.05
2023-04-13T02:53:37.268Z,9.15
2023-04-13T02:56:45.859Z,9.53
2023-04-13T02:59:51.573Z,9.86
2023-04-13T03:02:57.569Z,10.03
2023-04-13T03:06:07.667Z,9.48
2023-04-13T03:09:39.010Z,9.49
2023-04-13T03:12:43.029Z,9.90
2023-04-13T03:15:48.795Z,9.35
2023-04-13T03:18:53.476Z,9.35
2023-04-13T03:21:58.117Z,8.87
2023-04-13T03:25:05.003Z,8.86
2023-04-13T03:28:14.836Z,9.32
2023-04-13T03:31:23.034Z,9.33
2023-04-13T03:34:29.433Z,8.00
2023-04-13T03:37:41.193Z,7.57
2023-04-13T03:40:57.957Z,8.22
2023-04-13T03:44:05.908Z,8.46
2023-04-13T03:47:10.586Z,8.76
2023-04-13T03:50:15.482Z,9.08
2023-04-13T03:53:19.661Z,9.14
2023-04-13T03:56:25.452Z,8.98
2023-04-13T03:59:29.869Z,9.08
2023-04-13T04:02:34.558Z,9.41
2023-04-13T04:05:41.260Z,9.09
2023-04-13T04:08:50.480Z,9.57
2023-04-13T04:12:14.723Z,9.01
2023-04-13T04:15:21.681Z,9.22
2023-04-13T04:18:32.713Z,9.11
2023-04-13T04:21:37.946Z,8.91
2023-04-13T04:24:47.077Z,9.36
2023-04-13T04:27:58.848Z,9.50
2023-04-13T04:31:05.866Z,8.67
2023-04-13T04:34:11.518Z,8.92
2023-04-13T04:37:22.073Z,8.78
2023-04-13T04:40:45.984Z,8.71
2023-04-13T04:43:52.436Z,8.52
2023-04-13T04:46:56.704Z,8.43
2023-04-13T04:50:02.717Z,8.16
2023-04-13T04:53:14.642Z,8.11
2023-04-13T04:56:18.649Z,8.11
2023-04-13T04:59:26.764Z,8.11
2023-04-13T05:02:38.885Z,8.82
2023-04-13T05:05:47.529Z,8.29
2023-04-13T05:09:00.739Z,7.72
2023-04-13T05:12:07.529Z,7.98
2023-04-13T05:15:13.549Z,8.23
2023-04-13T05:18:18.100Z,7.55
2023-04-13T05:21:22.727Z,7.55
2023-04-13T05:24:34.513Z,8.39
2023-04-13T05:27:44.671Z,7.92
2023-04-13T05:30:51.268Z,7.89
2023-04-13T05:33:55.494Z,8.11
2023-04-13T05:37:04.157Z,8.33
2023-04-13T05:40:12.827Z,8.43
2023-04-13T05:43:18.021Z,8.44
2023-04-13T05:46:27.121Z,8.62
2023-04-13T05:49:32.962Z,8.83
2023-04-13T05:52:37.959Z,8.78
2023-04-13T05:55:46.669Z,8.58
2023-04-13T05:58:53.282Z,8.61
2023-04-13T06:02:11.111Z,8.13
2023-04-13T06:05:19.303Z,8.46
2023-04-13T06:08:24.299Z,8.36
2023-04-13T06:11:28.652Z,8.28
2023-04-13T06:14:33.435Z,7.68
2023-04-13T06:17:37.833Z,7.46
2023-04-13T06:20:43.585Z,7.93
2023-04-13T06:23:48.244Z,7.96
2023-04-13T06:27:02.405Z,7.87
2023-04-13T06:30:11.154Z,7.80
2023-04-13T06:33:16.351Z,7.91
2023-04-13T06:36:21.111Z,7.30
2023-04-13T06:39:27.116Z,7.34
2023-04-13T06:42:37.504Z,7.09
2023-04-13T06:46:03.067Z,7.32
2023-04-13T06:49:10.059Z,7.05
2023-04-13T06:52:16.665Z,7.20
2023-04-13T06:55:21.634Z,6.95
2023-04-13T06:58:26.479Z,6.75
2023-04-13T07:01:30.594Z,6.98
2023-04-13T07:04:35.865Z,6.48
2023-04-13T07:07:41.699Z,6.65
2023-04-13T07:10:48.487Z,6.70
2023-04-13T07:14:04.318Z,6.66
2023-04-13T07:17:10.183Z,6.73
2023-04-13T07:20:17.110Z,6.64
2023-04-13T07:23:24.222Z,6.57
2023-04-13T07:26:29.824Z,6.31
2023-04-13T07:29:35.859Z,6.08
2023-04-13T07:32:45.176Z,6.26
2023-04-13T07:35:51.200Z,6.19
2023-04-13T07:38:56.190Z,6.45
2023-04-13T07:42:01.061Z,6.05
2023-04-13T07:45:16.415Z,5.57
2023-04-13T07:48:23.124Z,5.67
2023-04-13T07:51:27.861Z,6.02
2023-04-13T07:54:32.309Z,5.40
2023-04-13T07:57:37.447Z,5.76
2023-04-13T08:00:43.467Z,5.49
2023-04-13T08:03:48.492Z,5.77
2023-04-13T08:06:57.883Z,5.89
2023-04-13T08:10:04.262Z,5.40
2023-04-13T08:13:09.208Z,5.42
2023-04-13T08:16:13.752Z,5.31
2023-04-13T08:19:19.582Z,5.21
2023-04-13T08:22:28.912Z,5.53
2023-04-13T08:25:35.285Z,5.29
2023-04-13T08:28:39.880Z,5.30
2023-04-13T08:31:44.045Z,5.32
2023-04-13T08:34:48.758Z,4.75
2023-04-13T08:37:55.055Z,4.68
2023-04-13T08:40:59.832Z,4.62
2023-04-13T08:44:08.456Z,4.80
2023-04-13T08:47:17.454Z,4.80
2023-04-13T08:50:23.951Z,4.84
2023-04-13T08:53:30.968Z,4.86
2023-04-13T08:56:46.229Z,4.80
2023-04-13T08:59:59.078Z,4.87
2023-04-13T09:03:09.728Z,4.47
2023-04-13T09:06:33.888Z,4.39
2023-04-13T09:09:46.726Z,4.30
2023-04-13T09:12:53.924Z,4.38
2023-04-13T09:15:58.545Z,4.47
2023-04-13T09:19:35.383Z,4.44
2023-04-13T09:22:43.601Z,4.41
2023-04-13T09:25:48.488Z,4.00
2023-04-13T09:28:56.585Z,3.59
2023-04-13T09:32:01.261Z,3.97
2023-04-13T09:35:09.408Z,4.36
2023-04-13T09:38:16.286Z,4.24
2023-04-13T09:41:38.274Z,4.26
2023-04-13T09:44:44.293Z,4.23
2023-04-13T09:47:49.658Z,4.24
2023-04-13T09:51:01.552Z,4.19
2023-04-13T09:54:07.749Z,4.18
2023-04-13T09:57:11.677Z,4.02
2023-04-13T10:00:26.111Z,3.74
2023-04-13T10:03:35.177Z,4.03
2023-04-13T10:06:47.808Z,3.97
2023-04-13T10:09:57.054Z,3.98
2023-04-13T10:13:08.978Z,3.73
2023-04-13T10:16:37.888Z,3.72
2023-04-13T10:19:53.720Z,3.58
2023-04-13T10:23:08.868Z,3.61
2023-04-13T10:26:13.641Z,3.50
2023-04-13T10:29:29.243Z,3.45
2023-04-13T10:32:33.720Z,3.46
2023-04-13T10:35:39.412Z,3.49
2023-04-13T10:38:47.857Z,3.61
2023-04-13T10:42:02.442Z,3.56
2023-04-13T10:45:17.389Z,3.66
2023-04-13T10:48:25.069Z,3.54
2023-04-13T10:51:49.829Z,3.41
2023-04-13T10:54:55.314Z,3.05
2023-04-13T10:58:01.181Z,2.95
2023-04-13T11:01:07.168Z,2.85
2023-04-13T11:04:15.152Z,2.85
2023-04-13T11:07:27.037Z,3.16
2023-04-13T11:10:32.962Z,3.04
2023-04-13T11:13:45.136Z,2.88
2023-04-13T11:16:58.244Z,2.78
2023-04-13T11:20:10.593Z,2.98
2023-04-13T11:23:19.745Z,2.92
2023-04-13T11:26:38.942Z,2.53
2023-04-13T11:29:42.998Z,2.64
2023-04-13T11:32:49.517Z,2.38
2023-04-13T11:35:56.481Z,2.50
2023-04-13T11:39:02.654Z,2.61
2023-04-13T11:42:10.109Z,2.66
2023-04-13T11:45:20.405Z,2.76
2023-04-13T11:48:29.513Z,2.74
2023-04-13T11:51:36.052Z,2.81
2023-04-13T11:54:41.802Z,2.59
2023-04-13T11:57:46.495Z,2.51
2023-04-13T12:00:50.917Z,2.57
2023-04-13T12:04:12.857Z,2.52
2023-04-13T12:07:22.424Z,2.61
2023-04-13T12:10:39.473Z,2.80
2023-04-13T12:14:06.452Z,2.81
2023-04-13T12:20:23.395Z,2.87
2023-04-13T12:23:28.448Z,2.53
2023-04-13T12:27:17.259Z,2.72
2023-04-13T12:30:07.405Z,2.89
2023-04-13T12:33:13.098Z,2.83
2023-04-13T12:36:17.552Z,2.90
2023-04-13T12:39:22.331Z,3.13
2023-04-13T12:42:26.824Z,3.04
2023-04-13T12:45:31.931Z,2.94
2023-04-13T12:48:37.265Z,2.91
2023-04-13T12:51:41.521Z,2.77
2023-04-13T12:54:45.916Z,2.71
2023-04-13T12:57:50.941Z,2.95
2023-04-13T13:00:56.890Z,3.05
2023-04-13T13:04:01.527Z,3.10
2023-04-13T13:07:07.932Z,3.13
2023-04-13T13:10:29.244Z,3.14
2023-04-13T13:13:34.304Z,3.18
2023-04-13T13:16:39.009Z,2.93
2023-04-13T13:19:43.751Z,3.07
2023-04-13T13:22:48.700Z,2.96
2023-04-13T13:26:17.394Z,3.15
2023-04-13T13:29:18.866Z,2.73
2023-04-13T13:32:23.738Z,2.62
2023-04-13T13:35:28.384Z,2.67
2023-04-13T13:38:34.500Z,2.75
2023-04-13T13:41:41.219Z,2.72
2023-04-13T13:44:45.870Z,2.59
2023-04-13T13:47:54.143Z,2.95
2023-04-13T13:51:07.855Z,2.80
2023-04-13T13:54:13.824Z,3.21
2023-04-13T13:57:18.326Z,3.23
2023-04-13T14:00:22.621Z,3.42
2023-04-13T14:03:28.065Z,3.27
2023-04-13T14:06:35.334Z,3.39
2023-04-13T14:09:41.180Z,3.48
2023-04-13T14:12:49.598Z,3.10
2023-04-13T14:15:54.768Z,3.13
2023-04-13T14:18:59.823Z,3.24
2023-04-13T14:22:04.665Z,3.31
2023-04-13T14:25:10.194Z,3.22
2023-04-13T14:28:15.380Z,3.20
2023-04-13T14:31:20.112Z,3.11
2023-04-13T14:34:24.636Z,2.93
2023-04-13T14:37:29.287Z,2.87
2023-04-13T14:40:34.474Z,3.14
2023-04-13T14:43:38.591Z,3.01
2023-04-13T14:46:43.190Z,2.96
2023-04-13T14:49:48.502Z,2.88
2023-04-13T14:52:53.198Z,2.87
2023-04-13T14:55:58.303Z,2.81
2023-04-13T14:59:03.538Z,2.82
2023-04-13T15:02:09.446Z,2.74
2023-04-13T15:05:13.937Z,2.40
2023-04-13T15:08:20.251Z,2.66
2023-04-13T15:11:24.726Z,2.51
2023-04-13T15:14:29.301Z,2.40
2023-04-13T15:17:34.072Z,2.31
2023-04-13T15:20:38.746Z,2.29
2023-04-13T15:23:42.996Z,2.16
2023-04-13T15:26:47.613Z,2.06
2023-04-13T15:30:04.300Z,1.99
2023-04-13T15:33:09.160Z,2.12
2023-04-13T15:36:17.620Z,2.01
2023-04-13T15:39:22.376Z,1.84
2023-04-13T15:42:26.993Z,1.83
2023-04-13T15:45:31.713Z,1.67
2023-04-13T15:48:36.496Z,1.69
2023-04-13T15:51:41.432Z,1.55
2023-04-13T15:54:45.813Z,1.34
2023-04-13T15:57:51.378Z,1.55
2023-04-13T16:01:06.933Z,1.33
2023-04-13T16:04:12.334Z,1.20
2023-04-13T16:07:17.210Z,1.08
2023-04-13T16:10:21.812Z,0.94
2023-04-13T16:13:34.778Z,0.67
2023-04-13T16:16:47.421Z,0.91
2023-04-13T16:19:54.316Z,0.97
2023-04-13T16:23:03.409Z,0.90
2023-04-13T16:26:08.556Z,0.88
2023-04-13T16:29:13.089Z,0.68
2023-04-13T16:32:17.096Z,0.84
2023-04-13T16:35:21.088Z,0.85
2023-04-13T16:38:25.472Z,0.78
2023-04-13T16:41:29.413Z,0.84
2023-04-13T16:44:34.145Z,0.94
2023-04-13T16:47:39.049Z,1.06
2023-04-13T16:50:43.612Z,0.80
2023-04-13T16:53:49.204Z,0.92
2023-04-13T16:56:53.778Z,0.97
2023-04-13T17:00:01.812Z,0.94
2023-04-13T17:03:08.711Z,1.32
2023-04-13T17:06:12.870Z,1.37
2023-04-13T17:09:18.502Z,1.38
2023-04-13T17:12:27.408Z,1.71
2023-04-13T17:15:34.756Z,1.80
2023-04-13T17:18:39.493Z,1.90
2023-04-13T17:21:43.864Z,1.75
2023-04-13T17:24:48.205Z,1.53
2023-04-13T17:27:53.471Z,1.64
2023-04-13T17:30:58.280Z,1.74
2023-04-13T17:34:02.922Z,1.87
2023-04-13T17:37:08.448Z,1.65
2023-04-13T17:40:13.301Z,1.59
2023-04-13T17:43:17.621Z,1.74
2023-04-13T17:46:22.016Z,1.90
2023-04-13T17:49:28.702Z,1.80
2023-04-13T17:52:33.303Z,1.51
2023-04-13T17:55:38.454Z,1.52
2023-04-13T17:58:43.112Z,1.07
2023-04-13T18:01:47.635Z,0.85
2023-04-13T18:04:52.701Z,0.75
2023-04-13T18:07:57.307Z,0.60
2023-04-13T18:11:01.890Z,0.71
2023-04-13T18:14:06.770Z,1.34
2023-04-13T18:17:11.004Z,1.48
2023-04-13T18:20:15.359Z,1.82
2023-04-13T18:23:21.188Z,1.78
2023-04-13T18:26:25.455Z,1.88
2023-04-13T18:29:29.945Z,1.96
2023-04-13T18:32:34.792Z,1.65
2023-04-13T18:35:43.700Z,1.71
2023-04-13T18:38:48.252Z,1.80
2023-04-13T18:41:52.868Z,1.87
2023-04-13T18:44:57.477Z,1.72
2023-04-13T18:48:02.079Z,1.49
2023-04-13T18:51:08.791Z,1.44
2023-04-13T18:54:13.550Z,1.69
2023-04-13T18:57:17.781Z,1.66
2023-04-13T19:00:22.677Z,1.72
2023-04-13T19:03:27.306Z,1.85
2023-04-13T19:06:31.685Z,1.99
2023-04-13T19:09:39.542Z,1.68
2023-04-13T19:12:43.843Z,1.64
2023-04-13T19:15:48.177Z,1.43
2023-04-13T19:18:53.036Z,1.30
2023-04-13T19:21:58.117Z,1.34
2023-04-13T19:25:02.676Z,1.32
2023-04-13T19:28:07.142Z,1.28
2023-04-13T19:31:12.854Z,1.38
2023-04-13T19:34:17.369Z,1.34
2023-04-13T19:37:22.468Z,1.41
2023-04-13T19:40:28.090Z,1.67
2023-04-13T19:43:32.481Z,1.53
2023-04-13T19:46:37.614Z,1.51
2023-04-13T19:49:41.553Z,1.46
2023-04-13T19:52:48.024Z,1.35
2023-04-13T19:55:52.928Z,1.29
2023-04-13T19:58:57.089Z,1.55
2023-04-13T20:02:01.561Z,1.38
2023-04-13T20:05:07.182Z,1.65
2023-04-13T20:08:11.821Z,1.24
2023-04-13T20:11:16.457Z,1.50
2023-04-13T20:14:20.735Z,1.75
2023-04-13T20:17:25.190Z,1.36
2023-04-13T20:20:30.380Z,1.70
2023-04-13T20:23:36.402Z,1.58
2023-04-13T20:26:40.802Z,1.79
2023-04-13T20:29:45.457Z,1.79
2023-04-13T20:32:49.899Z,1.68
2023-04-13T20:35:55.699Z,1.77
2023-04-13T20:39:02.676Z,1.54
2023-04-13T20:42:09.055Z,1.57
2023-04-13T20:45:15.592Z,2.03
2023-04-13T20:51:27.112Z,2.15
2023-04-13T20:54:31.372Z,1.88
2023-04-13T21:01:17.951Z,1.90
2023-04-13T21:04:22.476Z,2.06
2023-04-13T21:07:29.269Z,1.80
2023-04-13T21:10:33.822Z,1.97
2023-04-13T21:13:37.878Z,2.11
2023-04-13T21:16:44.424Z,2.16
2023-04-13T21:19:51.732Z,1.94
2023-04-13T21:22:57.776Z,2.21
2023-04-13T21:26:02.178Z,1.90
2023-04-13T21:29:08.397Z,1.61
2023-04-13T21:32:14.372Z,2.02
2023-04-13T21:35:21.712Z,2.11
2023-04-13T21:38:25.623Z,2.13
2023-04-13T21:41:29.783Z,2.26
2023-04-13T21:44:34.530Z,2.47
2023-04-13T21:47:40.934Z,2.59
2023-04-13T21:50:45.966Z,2.23
2023-04-13T21:53:50.517Z,2.06
2023-04-13T21:56:55.015Z,2.03
2023-04-13T21:59:59.602Z,1.69
2023-04-13T22:03:04.454Z,1.63
2023-04-13T22:06:10.604Z,2.03
2023-04-13T22:09:14.825Z,2.00
2023-04-13T22:12:19.390Z,2.03
2023-04-13T22:15:23.431Z,1.92
2023-04-13T22:18:28.316Z,1.95
2023-04-13T22:21:35.077Z,2.02
2023-04-13T22:24:39.590Z,2.11
2023-04-13T22:27:44.778Z,2.22
2023-04-13T22:30:49.576Z,2.26
2023-04-13T22:33:54.375Z,2.12
2023-04-13T22:36:59.032Z,1.89
2023-04-13T22:40:03.952Z,2.06
2023-04-13T22:43:08.644Z,2.40
2023-04-13T22:46:12.812Z,2.41
2023-04-13T22:49:17.195Z,2.67
2023-04-13T22:52:21.848Z,3.21
2023-04-13T22:55:26.385Z,3.25
2023-04-13T22:58:30.961Z,3.27
2023-04-13T23:01:35.341Z,3.28
2023-04-13T23:04:40.187Z,2.63
2023-04-13T23:07:44.922Z,3.14
2023-04-13T23:10:48.906Z,3.28
2023-04-13T23:13:55.866Z,3.21
2023-04-13T23:17:00.297Z,3.23
2023-04-13T23:20:07.919Z,2.95
2023-04-13T23:23:12.674Z,3.38
2023-04-13T23:26:17.092Z,3.18
2023-04-13T23:29:22.961Z,2.99
2023-04-13T23:32:27.242Z,2.54
2023-04-13T23:35:31.822Z,2.61
2023-04-13T23:38:36.497Z,2.51
2023-04-13T23:41:40.962Z,2.36
2023-04-13T23:44:45.291Z,2.50
2023-04-13T23:47:49.763Z,3.25
2023-04-13T23:50:54.346Z,3.14
2023-04-13T23:53:58.426Z,2.85
2023-04-13T23:57:03.357Z,3.82
